Hlavní strana
METAR-TAF:

METAR-TAF

Letiště :

Letiště Odense

Odense, Dánsko

zeměpisná šířka: 55-29N, zeměpisná délka: 010-20E, výška: 17 m

Aktuální stav počasí

Zpráva byla vytvořena před 13 hodinami a 53 minutami, v 14:50 UTC
Jihojihozápadní vítr 8 kt, proměnlivý mezi jižním a západním
Teplota 10°C
Vlhkost vzduchu 82%
Tlak 1024 hPa
Viditelnost 10 km a více
Skoro jasno ve výšce 1400 ft
Skoro jasno ve výšce 2000 ft
Oblačno až skoro zataženo ve výšce 9500 ft

METAR: EKOD 041450Z 21008KT 180V270 9999 FEW014 FEW020 BKN095 10/07 Q1024

Čas: 06:43 (04:43 UTC)

Předpověď počasí

Zpráva byla vytvořena před 19 hodinami a 44 minutami, v 08:59 UTC
Předpověď platná od 04 v 09 UTC do 04 v 15 UTC
Jihozápadní vítr 8 kt
Viditelnost 10 km a více
Oblačno až skoro zataženo ve výšce 2000 ft
Dočasný
od 04 v 09 UTC do 04 v 15 UTC
Oblačno až skoro zataženo ve výšce 1200 ft
Polojasno ve výšce 2000 ft, Cumulonimbus.

TAF: EKOD 040859Z 0409/0415 23008KT 9999 BKN020 TEMPO 0409/0415 BKN012 SCT020CB

Stav a předpovědi počasí z více než 4 000 letišť (zprávy METAR a TAF).

Červené a žluté tečky na mapě představují dostupné meteorologické stanice.

Když kurzor umístíte na tečku, zobrazí se název stanice.

Pak kliknutím zobrazíte stav a předpověď počasí.

Chcete-li změnit mapu, kliknutím na zelené tlačítko se znaménkem +mapu přiblížíte, kliknutím na zelené tlačítko se znaménkem – mapu oddálíte a kliknutím na zelené šipky přejdete na sousední mapy.


METAR-TAF: